createdAt,value
2018-02-17T00:01:23.757Z,10.20
2018-02-17T00:03:52.028Z,11.30
2018-02-17T00:06:20.318Z,12.40
2018-02-17T00:08:48.621Z,11.03
2018-02-17T00:11:16.881Z,12.50
2018-02-17T00:13:45.137Z,12.97
2018-02-17T00:16:13.448Z,11.87
2018-02-17T00:18:41.719Z,11.90
2018-02-17T00:21:10.008Z,12.07
2018-02-17T00:23:38.272Z,11.33
2018-02-17T00:26:06.544Z,12.70
2018-02-17T00:28:34.816Z,12.73
2018-02-17T00:31:03.112Z,12.60
2018-02-17T00:33:31.390Z,12.13
2018-02-17T00:35:59.660Z,10.90
2018-02-17T00:38:27.937Z,11.40
2018-02-17T00:40:56.727Z,11.67
2018-02-17T00:43:24.972Z,12.30
2018-02-17T00:45:53.965Z,10.73
2018-02-17T00:48:23.031Z,10.07
2018-02-17T00:50:51.272Z,11.03
2018-02-17T00:53:19.535Z,10.47
2018-02-17T00:55:47.825Z,10.43
2018-02-17T00:58:16.070Z,10.40
2018-02-17T01:00:45.110Z,12.57
2018-02-17T01:03:13.601Z,11.00
2018-02-17T01:05:41.871Z,10.37
2018-02-17T01:08:10.132Z,10.50
2018-02-17T01:10:38.397Z,10.73
2018-02-17T01:13:06.695Z,10.33
2018-02-17T01:15:34.916Z,11.63
2018-02-17T01:18:03.174Z,10.50
2018-02-17T01:20:31.454Z,12.17
2018-02-17T01:22:59.737Z,9.97
2018-02-17T01:25:28.258Z,11.00
2018-02-17T01:27:57.301Z,11.20
2018-02-17T01:30:25.567Z,9.83
2018-02-17T01:32:53.830Z,10.07
2018-02-17T01:35:22.119Z,11.47
2018-02-17T01:37:50.410Z,10.67
2018-02-17T01:40:18.651Z,9.50
2018-02-17T01:42:47.696Z,11.67
2018-02-17T01:45:15.973Z,10.63
2018-02-17T01:47:44.215Z,11.03
2018-02-17T01:50:24.977Z,9.97
2018-02-17T01:52:53.239Z,11.40
2018-02-17T01:55:21.516Z,10.73
2018-02-17T01:57:50.019Z,10.47
2018-02-17T02:00:19.075Z,11.83
2018-02-17T02:02:47.330Z,9.60
2018-02-17T02:05:15.560Z,10.83
2018-02-17T02:07:44.596Z,11.30
2018-02-17T02:10:12.879Z,12.90
2018-02-17T02:12:41.158Z,10.47
2018-02-17T02:15:09.433Z,11.70
2018-02-17T02:17:37.723Z,11.23
2018-02-17T02:20:06.003Z,11.07
2018-02-17T02:22:34.286Z,11.47
2018-02-17T02:25:02.521Z,11.80
2018-02-17T02:27:30.780Z,12.03
2018-02-17T02:29:59.822Z,11.10
2018-02-17T02:32:28.133Z,11.57
2018-02-17T02:34:56.397Z,10.90
2018-02-17T02:37:24.670Z,12.10
2018-02-17T02:39:52.931Z,10.07
2018-02-17T02:42:21.206Z,11.00
2018-02-17T02:44:49.492Z,10.73
2018-02-17T02:47:17.757Z,10.10
2018-02-17T02:49:46.015Z,12.53
2018-02-17T02:52:14.311Z,11.90
2018-02-17T02:54:42.547Z,11.53
2018-02-17T02:57:11.577Z,11.20
2018-02-17T02:59:39.880Z,11.90
2018-02-17T03:02:08.120Z,11.90
2018-02-17T03:04:36.435Z,12.03
2018-02-17T03:07:04.675Z,11.13
2018-02-17T03:09:32.941Z,10.43
2018-02-17T03:12:01.965Z,12.00
2018-02-17T03:14:30.206Z,12.50
2018-02-17T03:16:59.297Z,11.43
2018-02-17T03:19:27.538Z,12.03
2018-02-17T03:21:55.802Z,11.40
2018-02-17T03:24:24.305Z,10.33
2018-02-17T03:26:52.571Z,12.40
2018-02-17T03:29:20.857Z,12.00
2018-02-17T03:31:49.111Z,12.63
2018-02-17T03:34:17.397Z,12.27
2018-02-17T03:36:45.634Z,13.90
2018-02-17T03:39:14.682Z,12.83
2018-02-17T03:41:42.924Z,11.50
2018-02-17T03:44:11.181Z,12.53
2018-02-17T03:46:40.215Z,12.27
2018-02-17T03:49:08.507Z,13.50
2018-02-17T03:51:36.756Z,12.60
2018-02-17T03:54:05.019Z,12.93
2018-02-17T03:56:34.152Z,14.67
2018-02-17T03:59:03.256Z,12.90
2018-02-17T04:01:31.524Z,14.20
2018-02-17T04:03:59.792Z,14.50
2018-02-17T04:06:28.073Z,13.07
2018-02-17T04:08:56.388Z,12.30
2018-02-17T04:11:24.637Z,13.93
2018-02-17T04:13:52.935Z,13.13
2018-02-17T04:16:21.178Z,12.03
2018-02-17T04:18:49.437Z,15.13
2018-02-17T04:21:17.696Z,12.63
2018-02-17T04:23:45.981Z,13.50
2018-02-17T04:26:14.248Z,14.27
2018-02-17T04:28:43.282Z,15.10
2018-02-17T04:31:11.554Z,13.50
2018-02-17T04:33:39.800Z,13.73
2018-02-17T04:36:08.074Z,12.37
2018-02-17T04:38:37.083Z,14.27
2018-02-17T04:41:21.218Z,14.03
2018-02-17T04:43:55.081Z,13.60
2018-02-17T04:46:29.034Z,14.60
2018-02-17T04:49:14.947Z,12.07
2018-02-17T04:51:44.755Z,12.60
2018-02-17T04:54:20.800Z,14.83
2018-02-17T04:56:52.114Z,14.03
2018-02-17T04:59:38.228Z,14.90
2018-02-17T05:02:23.218Z,14.20
2018-02-17T05:04:52.308Z,14.13
2018-02-17T05:07:24.375Z,14.73
2018-02-17T05:09:53.421Z,14.90
2018-02-17T05:12:21.686Z,14.33
2018-02-17T05:14:55.571Z,14.63
2018-02-17T05:17:25.657Z,15.87
2018-02-17T05:20:00.443Z,16.63
2018-02-17T05:22:28.714Z,14.40
2018-02-17T05:28:03.101Z,15.10
2018-02-17T05:30:35.289Z,15.30
2018-02-17T05:33:10.010Z,15.37
2018-02-17T05:38:51.827Z,16.67
2018-02-17T05:41:26.614Z,15.27
2018-02-17T05:43:54.861Z,15.50
2018-02-17T05:46:23.116Z,16.30
2018-02-17T05:48:53.082Z,15.73
2018-02-17T05:51:21.364Z,14.63
2018-02-17T05:53:49.652Z,16.07
2018-02-17T05:56:18.005Z,15.73
2018-02-17T05:58:46.253Z,16.20
2018-02-17T06:01:14.514Z,14.40
2018-02-17T06:03:43.571Z,17.00
2018-02-17T06:06:11.827Z,18.50
2018-02-17T06:08:40.091Z,16.90
2018-02-17T06:11:08.767Z,16.60
2018-02-17T06:13:37.795Z,16.50
2018-02-17T06:16:06.046Z,17.70
2018-02-17T06:18:34.298Z,16.80
2018-02-17T06:21:03.327Z,17.20
2018-02-17T06:23:31.585Z,17.00
2018-02-17T06:25:59.876Z,16.80
2018-02-17T06:28:28.119Z,18.27
2018-02-17T06:30:57.156Z,17.27
2018-02-17T06:33:25.415Z,16.50
2018-02-17T06:35:53.697Z,17.43
2018-02-17T06:38:21.939Z,15.20
2018-02-17T06:40:50.215Z,17.70
2018-02-17T06:43:20.000Z,15.47
2018-02-17T06:45:48.287Z,15.07
2018-02-17T06:48:16.606Z,15.60
2018-02-17T06:50:45.193Z,17.17
2018-02-17T06:53:14.241Z,17.13
2018-02-17T06:55:42.501Z,17.57
2018-02-17T06:58:10.759Z,17.63
2018-02-17T07:00:39.049Z,19.40
2018-02-17T07:03:07.853Z,19.57
2018-02-17T07:05:36.117Z,18.00
2018-02-17T07:08:04.493Z,15.40
2018-02-17T07:10:32.752Z,17.47
2018-02-17T07:13:00.999Z,17.17
2018-02-17T07:15:30.004Z,17.40
2018-02-17T07:17:58.309Z,22.47
2018-02-17T07:20:26.653Z,17.50
2018-02-17T07:22:55.227Z,16.43
2018-02-17T07:25:23.533Z,18.70
2018-02-17T07:27:52.611Z,18.50
2018-02-17T07:30:20.848Z,17.57
2018-02-17T07:32:49.105Z,17.23
2018-02-17T07:35:17.396Z,18.57
2018-02-17T07:37:45.642Z,18.57
2018-02-17T07:40:14.224Z,18.67
2018-02-17T07:42:43.262Z,20.03
2018-02-17T07:45:11.541Z,17.30
2018-02-17T07:47:39.794Z,19.00
2018-02-17T07:50:08.078Z,18.47
2018-02-17T07:52:36.352Z,17.83
2018-02-17T07:55:04.612Z,17.97
2018-02-17T07:57:33.671Z,19.43
2018-02-17T08:00:01.949Z,18.00
2018-02-17T08:02:30.205Z,17.17
2018-02-17T08:04:58.477Z,19.87
2018-02-17T08:07:26.759Z,19.47
2018-02-17T08:09:55.026Z,18.80
2018-02-17T08:12:23.306Z,19.20
2018-02-17T08:14:51.553Z,22.27
2018-02-17T08:17:20.574Z,20.30
2018-02-17T08:19:48.834Z,19.23
2018-02-17T08:22:17.842Z,18.73
2018-02-17T08:24:46.098Z,19.83
2018-02-17T08:27:14.403Z,20.80
2018-02-17T08:29:42.674Z,21.27
2018-02-17T08:32:10.934Z,20.80
2018-02-17T08:34:39.208Z,19.90
2018-02-17T08:37:07.695Z,19.97
2018-02-17T08:39:37.293Z,19.87
2018-02-17T08:42:05.571Z,21.00
2018-02-17T08:44:34.747Z,21.93
2018-02-17T08:47:03.782Z,21.40
2018-02-17T08:49:32.040Z,21.13
2018-02-17T08:52:01.099Z,20.00
2018-02-17T08:54:29.357Z,20.53
2018-02-17T08:56:57.627Z,22.00
2018-02-17T08:59:25.853Z,20.77
2018-02-17T09:01:55.179Z,20.80
2018-02-17T09:04:23.471Z,22.60
2018-02-17T09:06:51.764Z,26.30
2018-02-17T09:09:30.937Z,24.57
2018-02-17T09:11:59.189Z,24.57
2018-02-17T09:14:27.460Z,24.40
2018-02-17T09:16:55.750Z,22.80
2018-02-17T09:19:24.003Z,23.60
2018-02-17T09:21:52.269Z,23.93
2018-02-17T09:24:20.555Z,23.13
2018-02-17T09:26:48.810Z,22.80
2018-02-17T09:29:17.059Z,25.47
2018-02-17T09:31:46.091Z,20.47
2018-02-17T09:34:14.354Z,23.87
2018-02-17T09:36:42.646Z,23.43
2018-02-17T09:39:10.943Z,21.50
2018-02-17T09:41:39.238Z,22.40
2018-02-17T09:44:07.468Z,20.27
2018-02-17T09:46:35.765Z,20.77
2018-02-17T09:49:04.001Z,22.97
2018-02-17T09:51:33.026Z,22.70
2018-02-17T09:54:01.319Z,21.40
2018-02-17T09:56:29.550Z,22.60
2018-02-17T09:58:58.616Z,23.50
2018-02-17T10:01:26.897Z,22.80
2018-02-17T10:03:55.158Z,22.20
2018-02-17T10:06:23.409Z,21.57
2018-02-17T10:08:52.426Z,23.10
2018-02-17T10:11:20.760Z,21.97
2018-02-17T10:13:48.989Z,23.50
2018-02-17T10:16:17.259Z,25.07
2018-02-17T10:18:45.565Z,31.07
2018-02-17T10:21:13.972Z,33.90
2018-02-17T10:23:42.233Z,34.27
2018-02-17T10:26:10.501Z,34.07
2018-02-17T10:28:39.521Z,33.70
2018-02-17T10:31:08.542Z,28.77
2018-02-17T10:33:36.852Z,25.53
2018-02-17T10:36:05.151Z,25.23
2018-02-17T10:38:33.425Z,26.70
2018-02-17T10:41:01.695Z,29.83
2018-02-17T10:43:30.050Z,24.13
2018-02-17T10:45:58.449Z,22.97
2018-02-17T10:48:26.699Z,25.67
2018-02-17T10:50:54.967Z,25.23
2018-02-17T10:53:23.260Z,24.30
2018-02-17T10:55:51.502Z,27.57
2018-02-17T10:58:20.518Z,23.70
2018-02-17T11:00:48.796Z,24.17
2018-02-17T11:03:17.957Z,24.83
2018-02-17T11:05:46.232Z,25.10
2018-02-17T11:08:15.273Z,23.70
2018-02-17T11:10:43.537Z,23.50
2018-02-17T11:13:12.571Z,21.80
2018-02-17T11:15:40.821Z,23.03
2018-02-17T11:18:09.089Z,23.27
2018-02-17T11:20:37.380Z,22.20
2018-02-17T11:23:05.626Z,21.17
2018-02-17T11:25:34.727Z,23.10
2018-02-17T11:28:03.763Z,22.87
2018-02-17T11:30:32.017Z,19.77
2018-02-17T11:33:00.355Z,20.90
2018-02-17T11:35:29.194Z,19.50
2018-02-17T11:37:58.281Z,20.30
2018-02-17T11:40:27.293Z,22.73
2018-02-17T11:42:55.669Z,22.10
2018-02-17T11:45:24.011Z,19.53
2018-02-17T11:47:53.070Z,20.00
2018-02-17T11:50:22.858Z,20.97
2018-02-17T11:52:51.144Z,17.53
2018-02-17T11:55:19.425Z,18.77
2018-02-17T11:57:47.718Z,19.50
2018-02-17T12:00:15.985Z,18.80
2018-02-17T12:02:44.293Z,17.33
2018-02-17T12:05:12.555Z,17.20
2018-02-17T12:07:40.823Z,15.17
2018-02-17T12:10:09.114Z,19.00
2018-02-17T12:12:37.395Z,18.13
2018-02-17T12:15:05.677Z,21.00
2018-02-17T12:17:35.084Z,12.20
2018-02-17T12:20:03.344Z,12.17
2018-02-17T12:22:32.908Z,9.60
2018-02-17T12:25:01.149Z,11.20
2018-02-17T12:27:29.436Z,10.93
2018-02-17T12:29:58.491Z,9.90
2018-02-17T12:32:26.770Z,11.83
2018-02-17T12:34:55.016Z,14.30
2018-02-17T12:37:23.364Z,12.77
2018-02-17T12:39:52.356Z,13.80
2018-02-17T12:42:20.614Z,16.73
2018-02-17T12:44:48.869Z,12.77
2018-02-17T12:47:17.148Z,11.97
2018-02-17T12:49:45.443Z,13.93
2018-02-17T12:52:14.463Z,13.03
2018-02-17T12:54:43.536Z,12.50
2018-02-17T12:57:11.768Z,10.67
2018-02-17T12:59:40.018Z,10.67
2018-02-17T13:02:08.496Z,11.03
2018-02-17T13:04:38.247Z,11.70
2018-02-17T13:07:06.521Z,11.60
2018-02-17T13:09:34.811Z,13.63
2018-02-17T13:12:03.087Z,13.77
2018-02-17T13:14:31.332Z,12.17
2018-02-17T13:17:00.400Z,13.77
2018-02-17T13:19:28.742Z,11.50
2018-02-17T13:21:57.034Z,9.70
2018-02-17T13:24:25.271Z,7.73
2018-02-17T13:26:54.298Z,10.20
2018-02-17T13:29:23.149Z,11.70
2018-02-17T13:31:52.184Z,13.67
2018-02-17T13:34:20.593Z,14.70
2018-02-17T13:36:48.921Z,14.57
2018-02-17T13:39:17.971Z,15.70
2018-02-17T13:41:46.277Z,15.40
2018-02-17T13:44:15.319Z,16.10
2018-02-17T13:46:43.552Z,14.67
2018-02-17T13:49:11.903Z,15.73
2018-02-17T13:51:41.530Z,14.90
2018-02-17T13:54:09.743Z,13.43
2018-02-17T13:56:38.025Z,15.70
2018-02-17T13:59:06.291Z,15.87
2018-02-17T14:01:34.578Z,15.13
2018-02-17T14:04:04.428Z,17.17
2018-02-17T14:06:32.746Z,16.50
2018-02-17T14:09:01.040Z,14.70
2018-02-17T14:11:29.283Z,14.83
2018-02-17T14:13:58.997Z,14.93
2018-02-17T14:16:27.363Z,15.30
2018-02-17T14:18:55.665Z,14.60
2018-02-17T14:21:23.964Z,15.50
2018-02-17T14:23:52.210Z,14.23
2018-02-17T14:26:21.248Z,16.40
2018-02-17T14:28:49.903Z,14.00
2018-02-17T14:31:19.047Z,14.10
2018-02-17T14:33:48.590Z,14.70
2018-02-17T14:36:18.598Z,14.67
2018-02-17T14:38:46.842Z,13.93
2018-02-17T14:41:15.087Z,14.77
2018-02-17T14:43:43.402Z,16.80
2018-02-17T14:46:12.647Z,14.73
2018-02-17T14:48:41.021Z,14.70
2018-02-17T14:51:09.324Z,12.97
2018-02-17T14:53:38.791Z,17.50
2018-02-17T14:56:07.066Z,15.80
2018-02-17T14:58:36.865Z,16.00
2018-02-17T15:01:06.736Z,17.17
2018-02-17T15:03:35.738Z,18.13
2018-02-17T15:06:04.035Z,15.77
2018-02-17T15:08:33.099Z,16.37
2018-02-17T15:11:02.239Z,15.20
2018-02-17T15:13:32.764Z,15.87
2018-02-17T15:16:01.143Z,16.50
2018-02-17T15:18:29.799Z,14.80
2018-02-17T15:20:58.819Z,12.47
2018-02-17T15:23:27.088Z,12.60
2018-02-17T15:25:55.340Z,14.30
2018-02-17T15:28:24.384Z,18.53
2018-02-17T15:30:52.617Z,12.10
2018-02-17T15:33:20.916Z,12.10
2018-02-17T15:35:49.223Z,14.53
2018-02-17T15:38:17.459Z,10.17
2018-02-17T15:40:45.796Z,11.03
2018-02-17T15:43:15.009Z,9.80
2018-02-17T15:45:43.291Z,14.13
2018-02-17T15:48:14.652Z,10.97
2018-02-17T15:50:43.676Z,13.40
2018-02-17T15:53:11.929Z,12.33
2018-02-17T15:55:40.226Z,12.87
2018-02-17T15:58:08.508Z,34.73
2018-02-17T16:00:37.191Z,12.20
2018-02-17T16:03:05.463Z,14.17
2018-02-17T16:05:33.720Z,11.33
2018-02-17T16:08:02.530Z,13.90
2018-02-17T16:10:30.802Z,14.30
2018-02-17T16:12:59.076Z,12.07
2018-02-17T16:15:27.362Z,12.43
2018-02-17T16:17:55.627Z,11.30
2018-02-17T16:20:23.933Z,11.07
2018-02-17T16:22:52.181Z,12.80
2018-02-17T16:25:21.204Z,10.83
2018-02-17T16:27:49.759Z,13.40
2018-02-17T16:30:18.548Z,12.03
2018-02-17T16:32:46.898Z,13.63
2018-02-17T16:35:15.243Z,12.73
2018-02-17T16:37:43.510Z,12.37
2018-02-17T16:40:13.425Z,12.67
2018-02-17T16:42:41.685Z,13.00
2018-02-17T16:45:09.961Z,13.73
2018-02-17T16:47:38.247Z,17.07
2018-02-17T16:50:06.533Z,13.20
2018-02-17T16:52:34.888Z,14.17
2018-02-17T16:55:03.183Z,14.50
2018-02-17T16:57:31.578Z,13.23
2018-02-17T17:00:00.506Z,13.70
2018-02-17T17:02:29.646Z,15.17
2018-02-17T17:04:57.867Z,13.20
2018-02-17T17:07:26.207Z,16.83
2018-02-17T17:09:54.526Z,15.73
2018-02-17T17:12:22.772Z,14.63
2018-02-17T17:14:51.087Z,13.27
2018-02-17T17:17:19.334Z,13.97
2018-02-17T17:19:47.621Z,14.23
2018-02-17T17:22:15.912Z,14.00
2018-02-17T17:24:44.232Z,14.70
2018-02-17T17:27:13.991Z,14.57
2018-02-17T17:29:42.346Z,15.27
2018-02-17T17:32:10.635Z,16.17
2018-02-17T17:34:38.927Z,16.37
2018-02-17T17:37:07.195Z,15.97
2018-02-17T17:39:35.508Z,15.00
2018-02-17T17:42:05.327Z,15.97
2018-02-17T17:44:33.608Z,16.17
2018-02-17T17:47:01.893Z,15.30
2018-02-17T17:49:30.165Z,15.40
2018-02-17T17:51:58.405Z,14.50
2018-02-17T17:54:26.697Z,18.83
2018-02-17T17:56:55.019Z,19.80
2018-02-17T17:59:24.032Z,17.00
2018-02-17T18:01:53.157Z,14.90
2018-02-17T18:04:21.428Z,12.43
2018-02-17T18:06:49.712Z,15.00
2018-02-17T18:09:17.972Z,14.77
2018-02-17T18:11:46.271Z,15.07
2018-02-17T18:14:14.555Z,15.17
2018-02-17T18:16:42.843Z,13.90
2018-02-17T18:19:11.542Z,13.83
2018-02-17T18:21:41.635Z,17.13
2018-02-17T18:24:10.706Z,17.70
2018-02-17T18:26:39.834Z,16.43
2018-02-17T18:29:08.171Z,16.67
2018-02-17T18:31:36.429Z,16.70
2018-02-17T18:34:05.599Z,14.00
2018-02-17T18:36:34.661Z,12.77
2018-02-17T18:39:03.097Z,15.67
2018-02-17T18:41:32.124Z,17.43
2018-02-17T18:44:00.433Z,17.10
2018-02-17T18:46:29.628Z,14.73
2018-02-17T18:48:57.898Z,15.13
2018-02-17T18:51:26.880Z,14.53
2018-02-17T18:53:55.213Z,15.00
2018-02-17T18:56:24.414Z,15.53
2018-02-17T18:58:53.474Z,15.97
2018-02-17T19:01:21.793Z,16.57
2018-02-17T19:03:50.079Z,15.47
2018-02-17T19:06:18.501Z,14.77
2018-02-17T19:08:46.845Z,15.70
2018-02-17T19:11:15.862Z,16.50
2018-02-17T19:13:44.172Z,15.57
2018-02-17T19:16:12.486Z,14.67
2018-02-17T19:25:28.506Z,16.70
2018-02-17T19:27:57.659Z,16.40
2018-02-17T19:30:25.982Z,15.07
2018-02-17T19:32:55.186Z,20.30
2018-02-17T19:35:24.295Z,15.33
2018-02-17T19:37:53.350Z,15.00
2018-02-17T19:40:21.690Z,14.77
2018-02-17T19:42:50.110Z,16.77
2018-02-17T19:45:18.420Z,17.93
2018-02-17T19:47:47.102Z,17.47
2018-02-17T19:50:16.127Z,18.00
2018-02-17T19:52:44.467Z,18.80
2018-02-17T19:55:12.799Z,17.27
2018-02-17T19:57:41.118Z,18.03
2018-02-17T20:00:09.435Z,16.80
2018-02-17T20:02:38.478Z,17.27
2018-02-17T20:05:06.795Z,16.27
2018-02-17T20:07:35.906Z,15.63
2018-02-17T20:10:04.359Z,18.70
2018-02-17T20:12:32.627Z,16.10
2018-02-17T20:15:01.178Z,17.80
2018-02-17T20:17:29.443Z,18.57
2018-02-17T20:19:57.714Z,18.10
2018-02-17T20:22:26.014Z,18.60
2018-02-17T20:24:54.297Z,20.40
2018-02-17T20:27:22.594Z,22.00
2018-02-17T20:29:50.870Z,20.77
2018-02-17T20:32:19.179Z,19.43
2018-02-17T20:34:47.539Z,21.60
2018-02-17T20:37:16.606Z,19.40
2018-02-17T20:39:44.888Z,19.50
2018-02-17T20:42:13.173Z,19.20
2018-02-17T20:44:41.449Z,23.13
2018-02-17T20:47:09.740Z,20.07
2018-02-17T20:49:38.053Z,18.63
2018-02-17T20:52:06.370Z,19.23
2018-02-17T20:54:34.712Z,16.83
2018-02-17T20:57:03.037Z,20.20
2018-02-17T20:59:31.336Z,20.73
2018-02-17T21:02:00.374Z,19.60
2018-02-17T21:04:28.645Z,19.17
2018-02-17T21:06:56.964Z,19.60
2018-02-17T21:09:25.301Z,19.90
2018-02-17T21:11:53.560Z,20.27
2018-02-17T21:14:21.915Z,20.57
2018-02-17T21:16:50.228Z,19.70
2018-02-17T21:19:18.900Z,19.90
2018-02-17T21:21:47.180Z,19.13
2018-02-17T21:24:15.868Z,20.20
2018-02-17T21:26:44.171Z,18.30
2018-02-17T21:29:12.558Z,20.77
2018-02-17T21:31:41.595Z,20.50
2018-02-17T21:34:09.952Z,20.20
2018-02-17T21:36:38.232Z,21.60
2018-02-17T21:39:06.499Z,21.37
2018-02-17T21:41:34.830Z,23.40
2018-02-17T21:44:03.308Z,21.03
2018-02-17T21:46:31.745Z,22.20
2018-02-17T21:49:00.073Z,25.67
2018-02-17T21:51:28.358Z,24.80
2018-02-17T21:53:57.429Z,28.67
2018-02-17T21:56:25.802Z,28.17
2018-02-17T21:58:54.096Z,26.03
2018-02-17T22:01:22.344Z,27.47
2018-02-17T22:03:50.653Z,26.73
2018-02-17T22:06:18.960Z,23.77
2018-02-17T22:08:47.988Z,26.93
2018-02-17T22:11:16.263Z,25.77
2018-02-17T22:13:44.528Z,23.40
2018-02-17T22:16:12.816Z,20.50
2018-02-17T22:18:41.144Z,25.83
2018-02-17T22:21:09.373Z,24.80
2018-02-17T22:23:37.691Z,25.93
2018-02-17T22:26:05.972Z,26.03
2018-02-17T22:28:34.278Z,23.93
2018-02-17T22:31:03.308Z,25.87
2018-02-17T22:33:31.578Z,27.47
2018-02-17T22:35:59.969Z,26.70
2018-02-17T22:38:28.304Z,26.67
2018-02-17T22:40:56.548Z,26.23
2018-02-17T22:43:24.814Z,26.50
2018-02-17T22:45:53.104Z,25.97
2018-02-17T22:48:22.879Z,24.47
2018-02-17T22:50:51.152Z,25.20
2018-02-17T22:53:19.424Z,24.60
2018-02-17T22:55:47.764Z,24.53
2018-02-17T22:58:16.024Z,26.00
2018-02-17T23:00:44.321Z,23.97
2018-02-17T23:03:12.882Z,25.23
2018-02-17T23:05:42.742Z,26.57
2018-02-17T23:08:12.225Z,26.37
2018-02-17T23:10:40.484Z,23.60
2018-02-17T23:13:08.775Z,29.60
2018-02-17T23:15:37.793Z,27.83
2018-02-17T23:18:06.847Z,26.13
2018-02-17T23:20:35.151Z,27.90
2018-02-17T23:23:03.456Z,27.83
2018-02-17T23:25:32.627Z,26.67
2018-02-17T23:28:00.901Z,28.20
2018-02-17T23:30:29.182Z,25.83
2018-02-17T23:32:57.476Z,29.83
2018-02-17T23:35:26.556Z,26.50
2018-02-17T23:37:54.826Z,28.60
2018-02-17T23:40:23.319Z,36.23
2018-02-17T23:42:53.085Z,33.13
2018-02-17T23:45:21.352Z,30.30
2018-02-17T23:47:50.067Z,32.30
2018-02-17T23:50:18.315Z,28.37
2018-02-17T23:52:46.584Z,33.37
2018-02-17T23:55:14.860Z,29.33
2018-02-17T23:57:43.125Z,30.97
